createdAt,value
2022-12-22T00:00:32.841Z,55.05
2022-12-22T00:03:32.523Z,48.05
2022-12-22T00:06:28.185Z,52.53
2022-12-22T00:09:18.313Z,52.70
2022-12-22T00:12:08.647Z,54.15
2022-12-22T00:17:50.228Z,57.80
2022-12-22T00:20:40.792Z,47.15
2022-12-22T00:23:32.377Z,51.45
2022-12-22T00:26:23.162Z,40.03
2022-12-22T00:29:13.436Z,51.33
2022-12-22T00:37:56.141Z,42.97
2022-12-22T00:40:47.730Z,38.92
2022-12-22T00:43:38.400Z,46.00
2022-12-22T00:46:31.905Z,43.55
2022-12-22T00:49:22.234Z,46.35
2022-12-22T00:55:03.067Z,41.20
2022-12-22T01:00:47.859Z,40.28
2022-12-22T01:03:38.159Z,41.45
2022-12-22T01:09:19.813Z,34.15
2022-12-22T01:12:10.150Z,38.10
2022-12-22T01:17:51.271Z,42.72
2022-12-22T01:20:41.605Z,45.28
2022-12-22T01:26:22.300Z,41.25
2022-12-22T01:29:12.715Z,39.10
2022-12-22T01:32:03.021Z,43.60
2022-12-22T01:34:54.769Z,37.13
2022-12-22T01:37:45.127Z,32.72
2022-12-22T01:43:46.648Z,38.95
2022-12-22T01:47:01.928Z,32.75
2022-12-22T01:50:00.136Z,34.88
2022-12-22T01:52:54.104Z,37.17
2022-12-22T01:55:44.848Z,41.05
2022-12-22T01:58:55.652Z,41.58
2022-12-22T02:01:49.190Z,36.83
2022-12-22T02:04:44.472Z,38.72
2022-12-22T02:08:16.105Z,38.00
2022-12-22T02:11:48.717Z,35.10
2022-12-22T02:14:46.691Z,35.80
2022-12-22T02:17:49.704Z,40.47
2022-12-22T02:21:06.749Z,37.00
2022-12-22T02:24:37.078Z,36.05
2022-12-22T02:27:29.104Z,35.92
2022-12-22T02:30:25.257Z,40.88
2022-12-22T02:33:16.240Z,39.30
2022-12-22T02:36:31.138Z,38.65
2022-12-22T02:39:50.873Z,42.47
2022-12-22T02:43:01.936Z,38.78
2022-12-22T02:46:07.018Z,38.75
2022-12-22T02:49:10.422Z,36.47
2022-12-22T02:52:15.460Z,39.17
2022-12-22T02:55:05.887Z,43.40
2022-12-22T02:57:56.324Z,39.78
2022-12-22T03:00:47.343Z,42.42
2022-12-22T03:03:37.905Z,39.72
2022-12-22T03:06:28.587Z,44.22
2022-12-22T03:09:19.155Z,42.20
2022-12-22T03:12:09.670Z,46.75
2022-12-22T03:15:00.061Z,42.53
2022-12-22T03:17:50.458Z,40.97
2022-12-22T03:23:31.302Z,53.13
2022-12-22T03:26:03.277Z,48.08
2022-12-22T03:28:35.250Z,49.55
2022-12-22T03:31:07.501Z,42.80
2022-12-22T03:33:39.750Z,44.00
2022-12-22T03:36:11.791Z,44.83
2022-12-22T03:38:43.718Z,46.20
2022-12-22T03:41:34.061Z,50.60
2022-12-22T03:46:56.221Z,48.85
2022-12-22T03:49:28.354Z,47.58
2022-12-22T03:52:00.365Z,48.17
2022-12-22T03:54:32.363Z,49.65
2022-12-22T03:57:04.295Z,48.88
2022-12-22T03:59:36.255Z,49.75
2022-12-22T04:02:08.278Z,47.08
2022-12-22T04:04:40.381Z,53.35
2022-12-22T04:07:12.311Z,58.42
2022-12-22T04:10:04.216Z,46.60
2022-12-22T04:12:54.516Z,47.05
2022-12-22T04:18:00.855Z,46.42
2022-12-22T04:20:32.854Z,42.20
2022-12-22T04:23:04.916Z,53.10
2022-12-22T04:25:36.877Z,47.13
2022-12-22T04:28:08.803Z,51.38
2022-12-22T04:30:40.748Z,45.60
2022-12-22T04:33:12.676Z,49.97
2022-12-22T04:35:44.722Z,53.13
2022-12-22T04:38:16.701Z,52.65
2022-12-22T04:40:48.702Z,47.13
2022-12-22T04:43:20.638Z,46.50
2022-12-22T04:45:54.513Z,49.40
2022-12-22T04:48:28.455Z,49.85
2022-12-22T04:51:01.241Z,43.70
2022-12-22T04:53:33.696Z,48.13
2022-12-22T04:56:08.130Z,50.97
2022-12-22T04:58:40.900Z,50.38
2022-12-22T05:01:16.505Z,49.70
2022-12-22T05:03:48.802Z,48.65
2022-12-22T05:06:20.761Z,52.15
2022-12-22T05:08:52.697Z,49.95
2022-12-22T05:11:24.662Z,55.75
2022-12-22T05:13:58.691Z,50.50
2022-12-22T05:16:34.121Z,49.72
2022-12-22T05:19:06.095Z,50.35
2022-12-22T05:21:38.137Z,50.42
2022-12-22T05:24:10.113Z,46.75
2022-12-22T05:26:42.083Z,53.65
2022-12-22T05:29:14.008Z,59.38
2022-12-22T05:31:47.480Z,56.03
2022-12-22T05:34:19.586Z,52.85
2022-12-22T05:36:51.525Z,50.55
2022-12-22T05:39:23.514Z,50.90
2022-12-22T05:41:55.589Z,56.38
2022-12-22T05:44:27.565Z,56.13
2022-12-22T05:46:59.493Z,50.88
2022-12-22T05:49:31.426Z,51.63
2022-12-22T05:52:03.476Z,58.35
2022-12-22T05:54:35.399Z,51.95
2022-12-22T05:57:07.339Z,55.40
2022-12-22T05:59:39.251Z,53.83
2022-12-22T06:02:11.344Z,58.63
2022-12-22T06:04:43.447Z,52.25
2022-12-22T06:07:15.414Z,47.78
2022-12-22T06:09:47.385Z,59.33
2022-12-22T06:12:19.507Z,58.20
2022-12-22T06:14:51.800Z,54.67
2022-12-22T06:17:25.023Z,53.55
2022-12-22T06:19:56.930Z,51.05
2022-12-22T06:22:28.881Z,58.08
2022-12-22T06:25:01.079Z,49.90
2022-12-22T06:27:33.125Z,49.92
2022-12-22T06:30:06.758Z,52.33
2022-12-22T06:32:40.069Z,58.90
2022-12-22T06:35:12.729Z,55.08
2022-12-22T06:37:45.311Z,53.95
2022-12-22T06:40:17.420Z,47.63
2022-12-22T06:43:09.013Z,54.63
2022-12-22T06:45:43.614Z,56.13
2022-12-22T06:48:15.757Z,48.33
2022-12-22T06:50:47.769Z,51.80
2022-12-22T06:53:19.738Z,53.05
2022-12-22T06:55:51.651Z,53.78
2022-12-22T06:58:23.617Z,57.70
2022-12-22T07:00:56.779Z,56.97
2022-12-22T07:03:28.926Z,52.17
2022-12-22T07:06:00.951Z,54.75
2022-12-22T07:08:32.996Z,56.53
2022-12-22T07:11:05.745Z,54.20
2022-12-22T07:13:37.752Z,50.28
2022-12-22T07:16:11.505Z,51.63
2022-12-22T07:18:44.037Z,57.17
2022-12-22T07:21:16.110Z,59.58
2022-12-22T07:23:48.103Z,55.85
2022-12-22T07:26:20.117Z,58.67
2022-12-22T07:28:52.161Z,61.42
2022-12-22T07:31:24.217Z,59.97
2022-12-22T07:33:56.248Z,55.58
2022-12-22T07:36:28.270Z,60.72
2022-12-22T07:39:00.198Z,54.30
2022-12-22T07:41:50.935Z,59.40
2022-12-22T07:44:23.098Z,51.00
2022-12-22T07:46:55.274Z,59.30
2022-12-22T07:49:45.725Z,55.47
2022-12-22T07:54:49.747Z,57.83
2022-12-22T07:57:21.677Z,56.22
2022-12-22T07:59:54.240Z,53.72
2022-12-22T08:02:26.262Z,57.40
2022-12-22T08:04:58.330Z,56.42
2022-12-22T08:07:32.642Z,62.55
2022-12-22T08:10:05.365Z,62.78
2022-12-22T08:12:37.677Z,64.43
2022-12-22T08:15:10.944Z,66.70
2022-12-22T08:17:42.898Z,63.85
2022-12-22T08:20:15.043Z,70.03
2022-12-22T08:22:47.071Z,58.72
2022-12-22T08:25:19.080Z,61.28
2022-12-22T08:27:53.778Z,61.28
2022-12-22T08:30:25.903Z,65.45
2022-12-22T08:32:57.915Z,72.25
2022-12-22T08:35:29.978Z,65.60
2022-12-22T08:38:02.589Z,64.30
2022-12-22T08:40:34.935Z,61.00
2022-12-22T08:43:10.081Z,65.15
2022-12-22T08:45:42.983Z,64.32
2022-12-22T08:48:14.904Z,65.80
2022-12-22T08:50:46.917Z,70.43
2022-12-22T08:54:02.621Z,72.45
2022-12-22T08:56:10.916Z,77.47
2022-12-22T08:58:42.865Z,83.03
2022-12-22T09:01:21.126Z,83.82
2022-12-22T09:03:54.808Z,90.15
2022-12-22T09:06:29.816Z,90.30
2022-12-22T09:09:08.236Z,81.45
2022-12-22T09:11:41.420Z,81.47
2022-12-22T09:14:13.862Z,82.22
2022-12-22T09:16:46.083Z,86.65
2022-12-22T09:19:18.344Z,86.22
2022-12-22T09:21:50.416Z,78.68
2022-12-22T09:24:22.768Z,76.85
2022-12-22T09:26:54.809Z,74.97
2022-12-22T09:29:26.782Z,74.68
2022-12-22T09:31:58.903Z,74.95
2022-12-22T09:34:31.076Z,70.45
2022-12-22T09:37:03.189Z,65.03
2022-12-22T09:39:35.162Z,66.18
2022-12-22T09:42:15.973Z,72.13
2022-12-22T09:44:51.947Z,67.95
2022-12-22T09:47:40.374Z,72.07
2022-12-22T09:50:17.807Z,65.93
2022-12-22T09:52:58.657Z,67.75
2022-12-22T09:55:39.811Z,67.68
2022-12-22T09:58:25.923Z,61.65
2022-12-22T10:01:52.575Z,68.53
2022-12-22T10:04:49.467Z,69.53
2022-12-22T10:07:41.086Z,64.00
2022-12-22T10:10:28.580Z,68.72
2022-12-22T10:13:04.251Z,65.10
2022-12-22T10:15:41.071Z,67.55
2022-12-22T10:18:27.997Z,72.88
2022-12-22T10:21:08.109Z,67.68
2022-12-22T10:23:45.127Z,69.07
2022-12-22T10:26:29.256Z,78.10
2022-12-22T10:29:06.284Z,74.93
2022-12-22T10:31:57.905Z,67.68
2022-12-22T10:34:31.002Z,67.70
2022-12-22T10:37:05.438Z,67.60
2022-12-22T10:39:38.802Z,65.43
2022-12-22T10:42:14.180Z,61.47
2022-12-22T10:44:48.969Z,51.05
2022-12-22T10:47:24.574Z,53.55
2022-12-22T10:52:32.306Z,53.95
2022-12-22T10:55:29.487Z,55.95
2022-12-22T10:58:10.588Z,55.05
2022-12-22T11:00:44.992Z,53.30
2022-12-22T11:03:31.041Z,59.10
2022-12-22T11:06:11.812Z,59.03
2022-12-22T11:08:51.000Z,50.10
2022-12-22T11:11:37.893Z,49.72
2022-12-22T11:14:44.978Z,52.80
2022-12-22T11:18:03.050Z,53.53
2022-12-22T11:20:46.165Z,47.25
2022-12-22T11:23:39.051Z,44.60
2022-12-22T11:26:35.621Z,47.47
2022-12-22T11:29:44.615Z,50.92
2022-12-22T11:32:33.320Z,49.30
2022-12-22T11:35:42.144Z,41.53
2022-12-22T11:38:50.782Z,44.92
2022-12-22T11:41:38.803Z,41.05
2022-12-22T11:44:47.628Z,47.65
2022-12-22T11:47:47.865Z,42.05
2022-12-22T11:51:01.294Z,51.25
2022-12-22T11:54:05.501Z,41.15
2022-12-22T11:56:50.224Z,46.65
2022-12-22T11:59:49.717Z,42.47
2022-12-22T12:02:29.368Z,54.17
2022-12-22T12:05:45.913Z,52.58
2022-12-22T12:08:45.207Z,43.05
2022-12-22T12:11:58.719Z,50.08
2022-12-22T12:15:15.079Z,50.67
2022-12-22T12:18:32.354Z,43.90
2022-12-22T12:21:37.579Z,46.22
2022-12-22T12:24:22.478Z,45.40
2022-12-22T12:27:17.906Z,41.72
2022-12-22T12:33:12.846Z,34.60
2022-12-22T12:36:13.003Z,37.15
2022-12-22T12:39:07.364Z,37.13
2022-12-22T12:42:23.091Z,31.35
2022-12-22T12:44:55.334Z,34.25
2022-12-22T12:47:33.214Z,27.55
2022-12-22T12:50:34.597Z,37.20
2022-12-22T12:53:11.406Z,27.73
2022-12-22T12:55:52.901Z,28.90
2022-12-22T12:58:39.693Z,26.10
2022-12-22T13:01:19.484Z,27.08
2022-12-22T13:04:06.796Z,30.55
2022-12-22T13:06:52.127Z,24.63
2022-12-22T13:09:49.784Z,31.15
2022-12-22T13:12:49.282Z,30.52
2022-12-22T13:15:39.337Z,23.35
2022-12-22T13:18:34.662Z,22.85
2022-12-22T13:21:42.465Z,29.23
2022-12-22T13:24:25.871Z,22.50
2022-12-22T13:27:06.818Z,32.58
2022-12-22T13:29:47.872Z,23.80
2022-12-22T13:32:28.978Z,21.88
2022-12-22T13:35:31.961Z,36.80
2022-12-22T13:38:05.376Z,28.17
2022-12-22T13:40:43.537Z,22.63
2022-12-22T13:43:18.035Z,23.17
2022-12-22T13:45:57.151Z,34.63
2022-12-22T13:48:44.799Z,25.10
2022-12-22T13:51:34.210Z,23.88
2022-12-22T13:54:11.046Z,25.60
2022-12-22T13:56:53.314Z,19.48
2022-12-22T13:59:30.576Z,23.02
2022-12-22T14:02:15.880Z,25.40
2022-12-22T14:05:13.833Z,27.75
2022-12-22T14:08:09.972Z,22.90
2022-12-22T14:10:45.727Z,25.63
2022-12-22T14:13:21.320Z,24.58
2022-12-22T14:16:02.278Z,18.20
2022-12-22T14:18:34.342Z,26.90
2022-12-22T14:21:07.883Z,21.67
2022-12-22T14:23:42.921Z,25.17
2022-12-22T14:26:24.023Z,29.13
2022-12-22T14:28:57.576Z,25.17
2022-12-22T14:31:29.729Z,29.15
2022-12-22T14:34:05.485Z,34.65
2022-12-22T14:36:41.644Z,31.17
2022-12-22T14:39:32.650Z,27.92
2022-12-22T14:42:12.138Z,20.17
2022-12-22T14:44:47.708Z,21.60
2022-12-22T14:47:25.882Z,27.05
2022-12-22T14:50:02.731Z,25.13
2022-12-22T14:53:11.926Z,21.58
2022-12-22T14:55:50.234Z,22.45
2022-12-22T14:58:34.218Z,27.48
2022-12-22T15:01:28.404Z,23.08
2022-12-22T15:04:16.921Z,24.98
2022-12-22T15:06:49.855Z,18.67
2022-12-22T15:10:13.767Z,21.45
2022-12-22T15:12:19.366Z,25.10
2022-12-22T15:14:51.545Z,25.42
2022-12-22T15:17:27.920Z,30.80
2022-12-22T15:20:00.238Z,28.25
2022-12-22T15:22:32.498Z,27.67
2022-12-22T15:25:17.866Z,29.05
2022-12-22T15:27:50.563Z,33.00
2022-12-22T15:30:28.905Z,29.63
2022-12-22T15:33:00.978Z,29.13
2022-12-22T15:35:35.164Z,29.30
2022-12-22T15:38:19.244Z,19.90
2022-12-22T15:40:52.539Z,32.15
2022-12-22T15:46:18.925Z,29.92
2022-12-22T15:48:51.142Z,29.88
2022-12-22T15:51:28.209Z,38.45
2022-12-22T15:54:00.823Z,31.55
2022-12-22T15:56:33.705Z,33.50
2022-12-22T15:59:05.999Z,28.10
2022-12-22T16:01:38.051Z,28.67
2022-12-22T16:04:10.506Z,28.75
2022-12-22T16:06:42.495Z,31.20
2022-12-22T16:09:27.798Z,22.90
2022-12-22T16:11:59.931Z,28.92
2022-12-22T16:14:38.552Z,33.80
2022-12-22T16:17:21.536Z,27.88
2022-12-22T16:19:53.942Z,32.25
2022-12-22T16:22:33.890Z,24.08
2022-12-22T16:25:13.420Z,37.13
2022-12-22T16:27:47.926Z,39.50
2022-12-22T16:30:23.876Z,27.95
2022-12-22T16:32:56.255Z,28.60
2022-12-22T16:35:32.993Z,27.85
2022-12-22T16:38:05.170Z,29.88
2022-12-22T16:40:44.763Z,27.95
2022-12-22T16:46:22.396Z,31.98
2022-12-22T16:48:59.394Z,24.05
2022-12-22T16:51:34.370Z,26.73
2022-12-22T16:54:06.563Z,30.60
2022-12-22T16:56:39.053Z,31.15
2022-12-22T16:59:11.129Z,30.63
2022-12-22T17:01:53.276Z,26.58
2022-12-22T17:04:30.563Z,32.88
2022-12-22T17:07:03.031Z,26.23
2022-12-22T17:09:46.862Z,28.90
2022-12-22T17:12:28.302Z,31.95
2022-12-22T17:15:01.755Z,31.75
2022-12-22T17:17:40.175Z,31.55
2022-12-22T17:22:59.175Z,20.55
2022-12-22T17:25:31.669Z,33.00
2022-12-22T17:28:03.686Z,25.25
2022-12-22T17:30:35.841Z,33.60
2022-12-22T17:33:17.510Z,26.92
2022-12-22T17:35:49.510Z,36.03
2022-12-22T17:38:23.065Z,30.98
2022-12-22T17:40:56.999Z,30.30
2022-12-22T17:43:29.003Z,35.53
2022-12-22T17:46:01.305Z,34.60
2022-12-22T17:48:33.252Z,31.88
2022-12-22T17:51:05.359Z,27.00
2022-12-22T17:53:40.887Z,36.03
2022-12-22T17:56:22.703Z,27.40
2022-12-22T17:58:54.991Z,43.53
2022-12-22T18:01:32.493Z,28.23
2022-12-22T18:04:04.943Z,37.78
2022-12-22T18:06:39.350Z,38.00
2022-12-22T18:09:21.198Z,59.13
2022-12-22T18:11:54.163Z,29.00
2022-12-22T18:14:27.570Z,35.85
2022-12-22T18:16:59.502Z,34.28
2022-12-22T18:19:31.590Z,39.65
2022-12-22T18:22:03.599Z,38.00
2022-12-22T18:24:35.614Z,35.05
2022-12-22T18:27:13.850Z,38.25
2022-12-22T18:29:49.361Z,35.13
2022-12-22T18:32:27.434Z,34.92
2022-12-22T18:34:59.894Z,39.72
2022-12-22T18:37:32.054Z,29.23
2022-12-22T18:40:04.791Z,39.53
2022-12-22T18:42:36.767Z,34.70
2022-12-22T18:45:15.025Z,35.75
2022-12-22T18:47:47.177Z,32.60
2022-12-22T18:50:23.806Z,34.75
2022-12-22T18:53:02.658Z,31.65
2022-12-22T18:55:35.608Z,37.88
2022-12-22T18:58:14.600Z,34.03
2022-12-22T19:00:47.213Z,29.10
2022-12-22T19:03:23.613Z,37.00
2022-12-22T19:05:56.160Z,36.40
2022-12-22T19:08:31.526Z,35.10
2022-12-22T19:11:07.279Z,30.95
2022-12-22T19:13:44.850Z,32.88
2022-12-22T19:16:21.542Z,34.85
2022-12-22T19:18:53.750Z,39.08
2022-12-22T19:21:26.017Z,40.35
2022-12-22T19:23:58.048Z,43.47
2022-12-22T19:26:30.043Z,44.40
2022-12-22T19:29:02.259Z,38.97
2022-12-22T19:31:37.479Z,37.47
2022-12-22T19:34:19.504Z,37.22
2022-12-22T19:36:51.562Z,38.67
2022-12-22T19:39:23.494Z,41.83
2022-12-22T19:41:55.583Z,43.33
2022-12-22T19:44:30.459Z,45.42
2022-12-22T19:47:02.870Z,37.70
2022-12-22T19:49:35.179Z,40.00
2022-12-22T19:52:10.133Z,40.25
2022-12-22T19:54:42.121Z,47.92
2022-12-22T19:57:20.604Z,44.67
2022-12-22T19:59:54.330Z,44.20
2022-12-22T20:02:30.665Z,51.92
2022-12-22T20:05:02.877Z,39.50
2022-12-22T20:07:37.097Z,45.40
2022-12-22T20:10:09.929Z,41.65
2022-12-22T20:12:46.531Z,47.42
2022-12-22T20:15:24.389Z,39.85
2022-12-22T20:17:58.307Z,43.42
2022-12-22T20:20:36.876Z,47.78
2022-12-22T20:23:18.401Z,41.58
2022-12-22T20:25:59.961Z,52.60
2022-12-22T20:28:38.874Z,49.63
2022-12-22T20:31:14.349Z,50.25
2022-12-22T20:33:46.694Z,47.13
2022-12-22T20:36:31.986Z,48.15
2022-12-22T20:39:13.410Z,52.28
2022-12-22T20:41:52.285Z,49.63
2022-12-22T20:44:25.277Z,60.83
2022-12-22T20:46:57.263Z,55.90
2022-12-22T20:49:29.399Z,54.88
2022-12-22T20:52:01.335Z,58.25
2022-12-22T20:54:33.335Z,65.80
2022-12-22T20:57:05.648Z,59.83
2022-12-22T20:59:37.605Z,65.55
2022-12-22T21:02:28.446Z,55.35
2022-12-22T21:05:00.890Z,53.53
2022-12-22T21:07:32.826Z,58.83
2022-12-22T21:10:05.535Z,61.92
2022-12-22T21:12:37.745Z,61.90
2022-12-22T21:15:22.137Z,70.05
2022-12-22T21:17:58.540Z,64.50
2022-12-22T21:20:31.823Z,56.38
2022-12-22T21:23:03.771Z,57.10
2022-12-22T21:25:36.404Z,67.30
2022-12-22T21:28:09.634Z,57.15
2022-12-22T21:30:41.838Z,58.60
2022-12-22T21:33:13.847Z,61.03
2022-12-22T21:35:45.949Z,60.70
2022-12-22T21:38:20.948Z,57.40
2022-12-22T21:40:52.971Z,60.33
2022-12-22T21:43:25.555Z,64.32
2022-12-22T21:45:57.579Z,66.95
2022-12-22T21:48:29.773Z,65.25
2022-12-22T21:51:01.724Z,74.85
2022-12-22T21:53:33.776Z,60.25
2022-12-22T21:56:17.520Z,59.15
2022-12-22T21:58:49.437Z,61.20
2022-12-22T22:01:21.446Z,62.90
2022-12-22T22:03:53.500Z,64.80
2022-12-22T22:06:25.663Z,64.90
2022-12-22T22:08:57.632Z,61.50
2022-12-22T22:11:29.675Z,63.60
2022-12-22T22:14:01.668Z,69.43
2022-12-22T22:16:33.662Z,66.70
2022-12-22T22:19:05.687Z,72.72
2022-12-22T22:21:37.632Z,74.05
2022-12-22T22:24:09.633Z,69.97
2022-12-22T22:26:44.865Z,77.45
2022-12-22T22:29:16.899Z,79.18
2022-12-22T22:31:48.987Z,72.85
2022-12-22T22:34:21.024Z,66.45
2022-12-22T22:36:53.016Z,69.70
2022-12-22T22:39:25.081Z,77.68
2022-12-22T22:41:57.064Z,65.97
2022-12-22T22:44:29.014Z,67.88
2022-12-22T22:47:01.102Z,75.53
2022-12-22T22:49:33.075Z,71.25
2022-12-22T22:52:05.220Z,67.85
2022-12-22T22:54:37.248Z,66.72
2022-12-22T22:57:09.234Z,71.00
2022-12-22T22:59:41.193Z,80.05
2022-12-22T23:02:16.322Z,73.20
2022-12-22T23:04:48.402Z,82.00
2022-12-22T23:07:20.403Z,65.00
2022-12-22T23:09:52.368Z,82.30
2022-12-22T23:12:24.525Z,81.90
2022-12-22T23:14:56.531Z,77.90
2022-12-22T23:17:29.432Z,69.45
2022-12-22T23:20:01.387Z,73.57
2022-12-22T23:22:33.370Z,76.45
2022-12-22T23:25:05.727Z,83.60
2022-12-22T23:27:37.712Z,79.07
2022-12-22T23:30:10.575Z,74.95
2022-12-22T23:32:42.601Z,77.40
2022-12-22T23:35:14.621Z,67.97
2022-12-22T23:37:46.575Z,73.28
2022-12-22T23:40:50.493Z,76.18
2022-12-22T23:43:12.516Z,79.78
2022-12-22T23:45:44.512Z,79.10
2022-12-22T23:48:16.563Z,70.05
2022-12-22T23:50:49.791Z,74.18
2022-12-22T23:53:22.214Z,84.07
2022-12-22T23:55:54.154Z,86.38
2022-12-22T23:58:26.341Z,83.03
